Flight Track Log - Related Links

Times and Time Zones

All times are in EDT time to prevent confusion due to time zone crossing. See the DLH455 flight status page for this flight to view local times or setup timezone preferences in your user account.

Time Position Orientation Groundspeed Altitude Reporting Facility
EDT Latitude Longitude Course Direction KTS MPH feet Rate Location/Type
Thu 06:24:12 PM 37.6210 -122.3760 291° West 141 162  Level FlightAware ADS-B
Thu 06:24:24 PM 37.6262 -122.3870 301° West 170 196 720 Level FlightAware ADS-B
Thu 06:24:37 PM 37.6310 -122.3990 297° West 171 197 300 1,548 Climbing FlightAware ADS-B
Thu 06:24:55 PM 37.6378 -122.4150 298° West 175 201 800 1,667 Climbing FlightAware ADS-B
Thu 06:25:13 PM 37.6444 -122.4310 298° West 175 201 1,300 1,737 Climbing FlightAware ADS-B
Thu 06:25:33 PM 37.6513 -122.4490 296° West 175 201 1,900 1,742 Climbing FlightAware ADS-B
Thu 06:25:44 PM 37.6554 -122.4600 295° West 183 211 2,200 1,636 Climbing FlightAware ADS-B
Thu 06:26:06 PM 37.6645 -122.4820 298° West 196 226 2,800 1,737 Climbing FlightAware ADS-B
Thu 06:26:22 PM 37.6712 -122.4980 298° West 196 226 3,300 1,333 Climbing FlightAware ADS-B
Thu 06:26:51 PM 37.6865 -122.5270 304° West 205 236 3,800 1,114 Climbing FlightAware ADS-B
Thu 06:27:32 PM 37.7270 -122.5530 333° Northwest 266 306 4,600 1,574 Climbing FlightAware ADS-B
Thu 06:27:52 PM 37.7517 -122.5670 336° Northwest 264 304 5,400 2,341 Climbing FlightAware ADS-B
Thu 06:28:13 PM 37.7759 -122.5810 335° Northwest 283 326 6,200 2,235 Climbing FlightAware ADS-B
Thu 06:28:43 PM 37.8138 -122.5890 351° North 287 330 7,300 1,890 Climbing FlightAware ADS-B
Thu 06:29:26 PM 37.8500 -122.5350 50° Northeast 300 345 8,500 1,600 Climbing FlightAware ADS-B
Thu 06:29:43 PM 37.8558 -122.5050 76° East 301 346 8,900 1,059 Climbing FlightAware ADS-B
Thu 06:30:00 PM 37.8622 -122.4750 75° East 324 373 9,100 1,627 Climbing FlightAware ADS-B
Thu 06:30:42 PM 37.8800 -122.3970 74° East 331 381 10,500 1,895 Climbing FlightAware ADS-B
Thu 06:31:16 PM 37.9120 -122.3440 53° Northeast 339 390 11,500 1,814 Climbing FlightAware ADS-B
Thu 06:31:25 PM 37.9222 -122.3300 47° Northeast 339 390 11,800 1,200 Climbing FlightAware ADS-B
Thu 06:31:56 PM 37.9549 -122.2810 50° Northeast 358 412 12,300 794 Climbing FlightAware ADS-B
Thu 06:32:33 PM 37.9967 -122.2190 49° Northeast 392 451 12,700 903 Climbing FlightAware ADS-B
Thu 06:33:29 PM 38.0660 -122.1170 49° Northeast 421 484 13,700 1,063 Climbing FlightAware ADS-B
Thu 06:34:09 PM 38.1177 -122.0400 50° Northeast 421 484 14,400 1,250 Climbing FlightAware ADS-B
Thu 06:34:41 PM 38.1607 -121.9760 49° Northeast 421 484 15,200 1,629 Climbing FlightAware ADS-B
Thu 06:35:19 PM 38.2105 -121.9020 49° Northeast 448 516 16,300 1,481 Climbing FlightAware ADS-B
Thu 06:35:58 PM 38.2630 -121.8230 50° Northeast 454 522 17,100 1,286 Climbing FlightAware ADS-B
Thu 06:36:15 PM 38.2870 -121.7870 50° Northeast 448 516 17,500 1,180 Climbing FlightAware ADS-B
Thu 06:36:59 PM 38.3470 -121.6970 50° Northeast 459 528 18,300 1,227 Climbing FlightAware ADS-B
Thu 06:37:43 PM 38.4080 -121.6060 49° Northeast 472 543 19,300 1,355 Climbing FlightAware ADS-B
Thu 06:38:01 PM 38.4348 -121.5650 50° Northeast 470 541 19,700 1,217 Climbing FlightAware ADS-B
Thu 06:38:52 PM 38.5080 -121.4570 49° Northeast 481 554 20,700 1,172 Climbing FlightAware ADS-B
Thu 06:39:28 PM 38.5630 -121.3800 48° Northeast 485 558 21,400 1,059 Climbing FlightAware ADS-B
Thu 06:40:00 PM 38.6090 -121.3140 48° Northeast 490 564 21,900 1,114 Climbing FlightAware ADS-B
Thu 06:40:38 PM 38.6660 -121.2310 49° Northeast 491 565 22,700 1,135 Climbing FlightAware ADS-B
Thu 06:41:14 PM 38.7220 -121.1510 48° Northeast 497 572 23,300 909 Climbing FlightAware ADS-B
Thu 06:41:44 PM 38.7670 -121.0860 48° Northeast 502 578 23,700 818 Climbing FlightAware ADS-B
Thu 06:42:20 PM 38.8230 -121.0040 49° Northeast 508 585 24,200 904 Climbing FlightAware ADS-B
Thu 06:42:57 PM 38.8780 -120.9240 49° Northeast 510 587 24,800 1,324 Climbing FlightAware ADS-B
Thu 06:43:28 PM 38.9280 -120.8510 49° Northeast 504 580 25,700 1,391 Climbing FlightAware ADS-B
Thu 06:44:06 PM 38.9850 -120.7670 49° Northeast 504 580 26,400 1,297 Climbing FlightAware ADS-B
Thu 06:44:42 PM 39.0430 -120.6830 48° Northeast 499 574 27,300 1,315 Climbing FlightAware ADS-B
Thu 06:45:19 PM 39.0980 -120.6020 49° Northeast 501 577 28,000 1,397 Climbing FlightAware ADS-B
Thu 06:45:55 PM 39.1510 -120.5230 49° Northeast 494 568 29,000 1,522 Climbing FlightAware ADS-B
Thu 06:46:26 PM 39.1990 -120.4530 48° Northeast 493 567 29,700 1,182 Climbing FlightAware ADS-B
Thu 06:47:01 PM 39.2520 -120.3740 49° Northeast 496 571 30,300 1,099 Climbing FlightAware ADS-B
Thu 06:47:37 PM 39.3050 -120.2960 49° Northeast 496 571 31,000 1,043 Climbing FlightAware ADS-B
Thu 06:48:10 PM 39.3560 -120.2190 49° Northeast 499 574 31,500 917 Climbing FlightAware ADS-B
Thu 06:48:49 PM 39.4150 -120.1320 49° Northeast 502 578 32,100 857 Climbing FlightAware ADS-B
Thu 06:49:20 PM 39.4630 -120.0600 49° Northeast 506 582 32,500 522 Climbing FlightAware ADS-B
Thu 06:49:58 PM 39.5210 -119.9720 49° Northeast 515 593 32,700 320 Climbing FlightAware ADS-B
Thu 06:50:35 PM 39.5780 -119.8870 49° Northeast 526 605 32,900 265 Climbing FlightAware ADS-B
Thu 06:51:06 PM 39.6300 -119.8090 49° Northeast 532 612 33,000 88 Climbing FlightAware ADS-B
Thu 06:51:43 PM 39.6870 -119.7220 50° Northeast 537 618 33,000  Level FlightAware ADS-B
Thu 06:52:16 PM 39.7410 -119.6400 49° Northeast 539 620 33,000  Level FlightAware ADS-B
Thu 06:52:52 PM 39.8000 -119.5490 50° Northeast 541 623 33,000  Level FlightAware ADS-B
Thu 06:53:28 PM 39.8580 -119.4620 49° Northeast 541 623 33,000 250 Level FlightAware ADS-B
Thu 06:54:04 PM 39.9170 -119.3720 49° Northeast 542 624 33,300 794 Climbing FlightAware ADS-B
Thu 06:54:36 PM 39.9680 -119.2930 50° Northeast 539 620 33,900 971 Climbing FlightAware ADS-B
Thu 06:55:12 PM 40.0260 -119.2040 50° Northeast 538 619 34,400 833 Climbing FlightAware ADS-B
Thu 06:55:48 PM 40.0840 -119.1140 50° Northeast 538 619 34,900 529 Climbing FlightAware ADS-B
Thu 06:56:20 PM 40.1350 -119.0350 50° Northeast 543 625 35,000 87 Climbing FlightAware ADS-B
Thu 06:56:57 PM 40.1950 -118.9420 50° Northeast 537 618 35,000  Level FlightAware ADS-B
Thu 06:57:33 PM 40.2530 -118.8520 50° Northeast 538 619 35,000  Level FlightAware ADS-B
Thu 06:58:08 PM 40.3030 -118.7730 50° Northeast 542 624 35,000 185 Level FlightAware ADS-B
Thu 06:58:38 PM 40.3530 -118.6950 50° Northeast 544 626 35,200 615 Climbing FlightAware ADS-B
Thu 06:59:26 PM 40.4300 -118.5750 50° Northeast 542 624 35,800 628 Climbing FlightAware ADS-B
Thu 07:00:04 PM 40.4870 -118.4850 50° Northeast 544 626 36,100 329 Climbing FlightAware ADS-B
Thu 07:00:39 PM 40.5450 -118.3930 50° Northeast 547 629 36,200 507 Climbing FlightAware ADS-B
Thu 07:01:15 PM 40.6060 -118.2970 50° Northeast 545 627 36,700 667 Climbing FlightAware ADS-B
Thu 07:01:51 PM 40.6640 -118.2050 50° Northeast 543 625 37,000 250 Climbing FlightAware ADS-B
Thu 07:02:27 PM 40.7090 -118.1340 50° Northeast 543 625 37,000  Level FlightAware ADS-B
Thu 07:03:04 PM 40.7590 -118.0550 50° Northeast 543 625 37,000  Level FlightAware ADS-B
Thu 07:03:40 PM 40.8090 -117.9770 50° Northeast 543 625 37,000  Level FlightAware ADS-B
Thu 07:04:17 PM 40.8590 -117.8970 50° Northeast 543 625 37,000  Level FlightAware ADS-B
Thu 07:04:51 PM 40.9060 -117.8230 50° Northeast 543 625 37,000  Level FlightAware ADS-B
Thu 07:05:27 PM 40.9560 -117.7450 50° Northeast 543 625 37,000  Level FlightAware ADS-B
Thu 07:06:06 PM 41.0720 -117.5470 52° Northeast 553 636 37,000  Level FlightAware ADS-B
Thu 07:06:39 PM 41.1280 -117.4570 50° Northeast 549 632 37,000  Level FlightAware ADS-B
Thu 07:07:12 PM 41.1810 -117.3700 51° Northeast 547 629 37,000  Level FlightAware ADS-B
Thu 07:07:48 PM 41.2380 -117.2760 51° Northeast 549 632 37,000  Level FlightAware ADS-B
Thu 07:08:24 PM 41.2950 -117.1830 51° Northeast 548 631 37,000  Level FlightAware ADS-B
Thu 07:08:58 PM 41.3500 -117.0920 51° Northeast 546 628 37,000  Level FlightAware ADS-B
Thu 07:09:36 PM 41.4090 -116.9940 51° Northeast 546 628 37,000  Level FlightAware ADS-B
Thu 07:10:08 PM 41.4610 -116.9090 51° Northeast 546 628 37,000  Level FlightAware ADS-B
Thu 07:10:44 PM 41.5170 -116.8160 51° Northeast 547 629 37,000  Level FlightAware ADS-B
Thu 07:11:20 PM 41.5750 -116.7190 51° Northeast 548 631 37,000  Level FlightAware ADS-B
Thu 07:11:52 PM 41.6250 -116.6350 51° Northeast 549 632 37,000  Level FlightAware ADS-B
Thu 07:12:30 PM 41.6850 -116.5340 51° Northeast 553 636 37,000  Level FlightAware ADS-B
Thu 07:13:02 PM 41.7360 -116.4480 52° Northeast 554 638 37,000  Level FlightAware ADS-B
Thu 07:13:41 PM 41.7970 -116.3460 51° Northeast 558 642 37,000  Level FlightAware ADS-B
Thu 07:14:12 PM 41.8480 -116.2580 52° Northeast 558 642 37,000  Level FlightAware ADS-B
Thu 07:14:48 PM 41.9050 -116.1620 51° Northeast 557 641 37,000  Level FlightAware ADS-B
Thu 07:15:15 PM 41.9490 -116.0870 52° Northeast 556 640 37,000  Level FlightAware ADS-B
Thu 07:15:57 PM 42.0140 -115.9760 52° Northeast 557 641 37,000  Level FlightAware ADS-B
Thu 07:16:25 PM 42.0579 -115.8970 53° Northeast 557 641 37,000  Level FlightAware ADS-B
Thu 07:17:06 PM 42.1200 -115.7820 54° Northeast 558 642 37,000  Level FlightAware ADS-B
Thu 07:17:44 PM 42.1790 -115.6740 54° Northeast 562 647 37,000  Level FlightAware ADS-B
Thu 07:18:21 PM 42.2340 -115.5730 54° Northeast 562 647 37,000  Level FlightAware ADS-B
Thu 07:18:53 PM 42.2840 -115.4820 53° Northeast 561 646 37,000  Level FlightAware ADS-B
Thu 07:19:30 PM 42.3380 -115.3820 54° Northeast 563 648 37,000  Level FlightAware ADS-B
Thu 07:20:03 PM 42.3900 -115.2850 54° Northeast 563 648 37,000  Level FlightAware ADS-B
Thu 07:20:40 PM 42.4490 -115.1760 54° Northeast 562 647 37,000  Level FlightAware ADS-B
Thu 07:21:13 PM 42.4970 -115.0860 54° Northeast 565 650 37,000  Level FlightAware ADS-B
Thu 07:21:46 PM 42.5480 -114.9910 54° Northeast 567 652 37,000  Level FlightAware ADS-B
Thu 07:22:21 PM 42.6030 -114.8890 54° Northeast 567 652 37,000  Level FlightAware ADS-B
Thu 07:22:59 PM 42.6610 -114.7790 54° Northeast 566 651 37,000  Level FlightAware ADS-B
Thu 07:23:33 PM 42.7130 -114.6800 54° Northeast 558 642 37,000  Level FlightAware ADS-B
Thu 07:24:07 PM 42.7640 -114.5840 54° Northeast 564 649 37,000  Level FlightAware ADS-B
Thu 07:24:42 PM 42.8170 -114.4840 54° Northeast 564 649 37,000  Level FlightAware ADS-B
Thu 07:25:21 PM 42.8770 -114.3690 55° Northeast 566 651 37,000  Level FlightAware ADS-B
Thu 07:25:54 PM 42.9260 -114.2750 55° Northeast 569 655 37,000  Level FlightAware ADS-B
Thu 07:26:27 PM 42.9760 -114.1780 55° Northeast 568 654 37,000  Level FlightAware ADS-B
Thu 07:27:03 PM 43.0320 -114.0710 54° Northeast 569 655 37,000  Level FlightAware ADS-B
Thu 07:27:39 PM 43.0860 -113.9670 55° Northeast 570 656 37,000  Level FlightAware ADS-B
Thu 07:28:12 PM 43.1350 -113.8710 55° Northeast 568 654 37,000  Level FlightAware ADS-B
Thu 07:28:50 PM 43.1930 -113.7570 55° Northeast 568 654 37,000  Level FlightAware ADS-B
Thu 07:29:23 PM 43.2420 -113.6630 54° Northeast 571 657 37,000  Level FlightAware ADS-B
Thu 07:30:17 PM 43.3140 -113.5200 55° Northeast 571 657 37,000  Level FlightAware ADS-B
Thu 07:30:54 PM 43.3810 -113.3890 55° Northeast 573 659 37,000  Level FlightAware ADS-B
Thu 07:31:28 PM 43.4290 -113.2940 55° Northeast 574 661 37,000  Level FlightAware ADS-B
Thu 07:32:03 PM 43.4850 -113.1840 55° Northeast 575 662 37,000  Level FlightAware ADS-B
Thu 07:32:40 PM 43.5410 -113.0710 56° Northeast 575 662 37,000  Level FlightAware ADS-B
Thu 07:33:16 PM 43.5952 -112.9630 55° Northeast 577 664 37,000  Level FlightAware ADS-B
Thu 07:33:50 PM 43.6400 -112.8730 55° Northeast 578 665 37,000  Level FlightAware ADS-B
Thu 07:34:02 PM 43.6651 -112.8220 56° Northeast 578 665 37,000  Level FlightAware ADS-B
Thu 07:35:03 PM 43.7360 -112.6850 54° Northeast 578 665 37,000  Level FlightAware ADS-B
Thu 07:35:34 PM 43.8047 -112.5390 57° Northeast 585 673 37,000  Level FlightAware ADS-B
Thu 07:36:11 PM 43.8608 -112.4250 56° Northeast 583 671 37,000  Level FlightAware ADS-B
Thu 07:36:47 PM 43.9139 -112.3170 56° Northeast 582 670 37,000  Level FlightAware ADS-B
Thu 07:37:27 PM 43.9230 -112.3130 18° North 578 665 37,000  Level FlightAware ADS-B
Thu 07:38:04 PM 43.9710 -112.2180 55° Northeast 578 665 37,000  Level FlightAware ADS-B
Thu 07:38:41 PM 44.0200 -112.1220 55° Northeast 578 665 37,000  Level FlightAware ADS-B
Thu 07:39:17 PM 44.0670 -112.0290 55° Northeast 578 665 37,000  Level FlightAware ADS-B
Thu 07:39:53 PM 44.1140 -111.9350 55° Northeast 578 665 37,000  Level FlightAware ADS-B
Thu 07:40:29 PM 44.1600 -111.8420 55° Northeast 578 665 37,000  Level FlightAware ADS-B
Thu 07:41:05 PM 44.2070 -111.7480 55° Northeast 578 665 37,000  Level FlightAware ADS-B
Thu 07:41:42 PM 44.2560 -111.6520 55° Northeast 578 665 37,000  Level FlightAware ADS-B
Thu 07:42:18 PM 44.3030 -111.5590 55° Northeast 578 665 37,000  Level FlightAware ADS-B
Thu 07:42:54 PM 44.3490 -111.4650 56° Northeast 578 665 37,000  Level FlightAware ADS-B
Thu 07:43:30 PM 44.4992 -111.0917 56° Northeast 578 665 37,000  Level Salt Lake Center
Thu 07:44:32 PM 44.5967 -110.8833 57° Northeast 578 665 37,000  Level Salt Lake Center
Thu 07:45:34 PM 44.6803 -110.7031 57° Northeast 578 665 37,000  Level Salt Lake Center
Thu 07:46:36 PM 44.7775 -110.4919 57° Northeast 577 664 37,000  Level Salt Lake Center
Thu 07:47:38 PM 44.8608 -110.3108 57° Northeast 578 665 37,000  Level Salt Lake Center
Thu 07:48:40 PM 44.9581 -110.0989 57° Northeast 577 664 37,000  Level Salt Lake Center
Thu 07:49:42 PM 45.0403 -109.9175 57° Northeast 575 662 37,000  Level Salt Lake Center
Thu 07:50:44 PM 45.1292 -109.7322 56° Northeast 576 663 37,000  Level Salt Lake Center
Thu 07:51:47 PM 45.2369 -109.5064 56° Northeast 576 663 37,000  Level Salt Lake Center
Thu 07:52:49 PM 45.3242 -109.3144 57° Northeast 577 664 37,000  Level Salt Lake Center
Thu 07:53:51 PM 45.4108 -109.1267 57° Northeast 567 652 37,000  Level Salt Lake Center
Thu 07:54:53 PM 45.4997 -108.9322 57° Northeast 580 667 37,000  Level Salt Lake Center
Thu 07:55:55 PM 45.5958 -108.7528 53° Northeast 564 649 37,000  Level Salt Lake Center
Thu 07:56:57 PM 45.7031 -108.5864 47° Northeast 566 651 37,000  Level Salt Lake Center
Thu 07:57:59 PM 45.8164 -108.4156 46° Northeast 587 676 37,000  Level Salt Lake Center
Thu 07:59:01 PM 45.9411 -108.2008 50° Northeast 580 667 37,000  Level Salt Lake Center
Thu 08:00:03 PM 46.0419 -108.0219 51° Northeast 575 662 37,000  Level Salt Lake Center
Thu 08:01:05 PM 46.1317 -107.8300 56° Northeast 578 665 37,000  Level Salt Lake Center
Thu 08:02:07 PM 46.2069 -107.6228 62° Northeast 582 670 37,000  Level Salt Lake Center
Thu 08:03:09 PM 46.2831 -107.4153 62° Northeast 584 672 37,000  Level Salt Lake Center
Thu 08:04:11 PM 46.3583 -107.2078 62° Northeast 584 672 37,000  Level Salt Lake Center
Thu 08:05:13 PM 46.4506 -106.9597 62° Northeast 583 671 37,000  Level Salt Lake Center
Thu 08:06:15 PM 46.5247 -106.7508 63° Northeast 583 671 37,000  Level Salt Lake Center
Thu 08:07:17 PM 46.5981 -106.5400 63° Northeast 585 673 37,000  Level Salt Lake Center
Thu 08:08:19 PM 46.6733 -106.3311 62° Northeast 585 673 37,000  Level Salt Lake Center
Thu 08:09:21 PM 46.7467 -106.1208 63° Northeast 583 671 37,000  Level Salt Lake Center
Thu 08:10:23 PM 46.8217 -105.9147 62° Northeast 580 667 37,000  Level Salt Lake Center
Thu 08:11:26 PM 46.8978 -105.7019 62° Northeast 577 664 37,000  Level Salt Lake Center
Thu 08:12:28 PM 46.9800 -105.5028 59° Northeast 576 663 37,000  Level Salt Lake Center
Thu 08:13:30 PM 47.0778 -105.2644 59° Northeast 573 659 37,000  Level Salt Lake Center
Thu 08:14:32 PM 47.1567 -105.0631 60° Northeast 570 656 37,000  Level Salt Lake Center
Thu 08:15:34 PM 47.2361 -104.8644 59° Northeast 567 652 37,000  Level Salt Lake Center
Thu 08:16:36 PM 47.3139 -104.6636 60° Northeast 566 651 37,000  Level Salt Lake Center
Thu 08:17:38 PM 47.3936 -104.4644 59° Northeast 566 651 37,000  Level Salt Lake Center
Thu 08:18:40 PM 47.4733 -104.2633 60° Northeast 567 652 37,000  Level Salt Lake Center
Thu 08:19:42 PM 47.5664 -104.0206 60° Northeast 568 654 37,000  Level Salt Lake Center
Thu 08:20:44 PM 47.6342 -103.8436 60° Northeast 566 651 37,000  Level Salt Lake Center
Thu 08:21:46 PM 47.7181 -103.6228 60° Northeast 549 632 37,000  Level Salt Lake Center
Thu 08:22:48 PM 47.8094 -103.3850 60° Northeast 555 639 37,000  Level Salt Lake Center
Thu 08:23:50 PM 47.8861 -103.1792 61° Northeast 561 646 37,000  Level Salt Lake Center
Thu 08:24:52 PM 47.9622 -102.9753 61° Northeast 564 649 37,000  Level Salt Lake Center
Thu 08:25:54 PM 48.0381 -102.7683 61° Northeast 566 651 37,000  Level Salt Lake Center
Thu 08:26:47 PM 48.1119 -102.5639 62° Northeast 566 651 37,000  Level Minneapolis Center
Thu 08:27:49 PM 48.1856 -102.3569 62° Northeast 566 651 37,000  Level Minneapolis Center
Thu 08:28:51 PM 48.2600 -102.1489 62° Northeast 566 651 37,000  Level Minneapolis Center
Thu 08:29:53 PM 48.3344 -101.9414 62° Northeast 567 652 37,000  Level Minneapolis Center
Thu 08:35:21 PM 48.7390 -100.7810 62° Northeast 555 639 37,000  Level FlightAware ADS-B
Thu 08:36:11 PM 48.7980 -100.6070 63° Northeast 555 639 37,000  Level FlightAware ADS-B
Thu 08:36:43 PM 48.8350 -100.4950 63° Northeast 556 640 37,000  Level FlightAware ADS-B
Thu 08:37:17 PM 48.8720 -100.3840 63° Northeast 554 638 37,000  Level FlightAware ADS-B
Thu 08:37:55 PM 48.9180 -100.2480 63° Northeast 552 635 37,000  Level FlightAware ADS-B
Thu 08:38:29 PM 48.9580 -100.1270 63° Northeast 551 634 37,000  Level FlightAware ADS-B
Thu 08:39:06 PM 49.0000 -100.0030 63° Northeast 548 631 37,000  Level FlightAware ADS-B
Thu 08:39:39 PM 49.0440 -99.8940 58° Northeast 545 627 37,000  Level FlightAware ADS-B
Thu 08:40:15 PM 49.0940 -99.7770 57° Northeast 544 626 37,000  Level FlightAware ADS-B
Thu 08:40:52 PM 49.1390 -99.6680 58° Northeast 543 625 37,000  Level FlightAware ADS-B
Thu 08:41:23 PM 49.1850 -99.5580 57° Northeast 540 621 37,000  Level FlightAware ADS-B
Thu 08:42:05 PM 49.2400 -99.4240 58° Northeast 537 618 37,000  Level FlightAware ADS-B
Thu 08:42:44 PM 49.2910 -99.3010 58° Northeast 536 617 37,000  Level FlightAware ADS-B
Thu 08:43:15 PM 49.3330 -99.2000 57° Northeast 536 617 37,000  Level FlightAware ADS-B
Thu 08:43:53 PM 49.3830 -99.0770 58° Northeast 536 617 37,000  Level FlightAware ADS-B
Thu 08:44:29 PM 49.4300 -98.9610 58° Northeast 538 619 37,000  Level FlightAware ADS-B
Thu 08:45:03 PM 49.4750 -98.8510 58° Northeast 536 617 37,000  Level FlightAware ADS-B
Thu 08:45:39 PM 49.5220 -98.7340 58° Northeast 534 615 37,000  Level FlightAware ADS-B
Thu 08:46:15 PM 49.5670 -98.6220 58° Northeast 532 612 37,000  Level FlightAware ADS-B
Thu 08:46:48 PM 49.6100 -98.5150 58° Northeast 531 611 37,000  Level FlightAware ADS-B
Thu 08:47:19 PM 49.6500 -98.4140 59° Northeast 530 610 37,000  Level FlightAware ADS-B
Thu 08:47:56 PM 49.6960 -98.2990 58° Northeast 530 610 37,000  Level FlightAware ADS-B
Thu 08:48:31 PM 49.7420 -98.1830 58° Northeast 531 611 37,000  Level FlightAware ADS-B
Thu 08:49:07 PM 49.7890 -98.0620 59° Northeast 532 612 37,000  Level FlightAware ADS-B
Thu 08:49:45 PM 49.8370 -97.9410 58° Northeast 530 610 37,000  Level FlightAware ADS-B
Thu 08:50:17 PM 49.8770 -97.8360 59° Northeast 528 608 37,000  Level FlightAware ADS-B
Thu 08:51:06 PM 49.9320 -97.6950 59° Northeast 528 608 37,000  Level FlightAware ADS-B
Thu 08:51:41 PM 49.9830 -97.5640 59° Northeast 530 610 37,000  Level FlightAware ADS-B
Thu 08:52:18 PM 50.0270 -97.4480 59° Northeast 530 610 37,000  Level FlightAware ADS-B
Thu 08:52:50 PM 50.0690 -97.3390 59° Northeast 531 611 37,000  Level FlightAware ADS-B
Thu 08:53:27 PM 50.1080 -97.2370 59° Northeast 531 611 37,000  Level FlightAware ADS-B
Thu 08:54:03 PM 50.1470 -97.1360 59° Northeast 531 611 37,000  Level FlightAware ADS-B
Thu 08:54:39 PM 50.1860 -97.0360 59° Northeast 531 611 37,000  Level FlightAware ADS-B
Thu 08:55:15 PM 50.2240 -96.9350 60° Northeast 531 611 37,000  Level FlightAware ADS-B
Thu 08:55:53 PM 50.2650 -96.8290 59° Northeast 531 611 37,000  Level FlightAware ADS-B
Thu 08:56:29 PM 50.3040 -96.7280 59° Northeast 531 611 37,000  Level FlightAware ADS-B
Thu 08:57:06 PM 50.3440 -96.6240 59° Northeast 531 611 37,000  Level FlightAware ADS-B
Thu 08:57:44 PM 50.3850 -96.5170 59° Northeast 531 611 37,000  Level FlightAware ADS-B
Thu 08:58:18 PM 50.4210 -96.4220 59° Northeast 531 611 37,000  Level FlightAware ADS-B
Thu 08:58:55 PM 50.4610 -96.3180 59° Northeast 531 611 37,000  Level FlightAware ADS-B
Thu 08:59:32 PM 50.5010 -96.2140 59° Northeast 531 611 37,000  Level FlightAware ADS-B
Thu 09:00:08 PM 50.5390 -96.1120 60° Northeast 531 611 37,000  Level FlightAware ADS-B
Thu 09:00:44 PM 50.5780 -96.0110 59° Northeast 531 611 37,000  Level FlightAware ADS-B
Thu 09:01:20 PM 50.6170 -95.9090 59° Northeast 531 611 37,000  Level FlightAware ADS-B
Thu 09:01:58 PM 50.6580 -95.8020 59° Northeast 531 611 37,000  Level FlightAware ADS-B
Thu 09:02:34 PM 50.6960 -95.7000 60° Northeast 531 611 37,000  Level FlightAware ADS-B
Thu 09:03:09 PM 50.7667 -95.2167 60° Northeast 520 598 37,000  Level Winnipeg Center
Thu 09:04:09 PM 50.8333 -95.0333 60° Northeast 520 598 37,000  Level Winnipeg Center
Thu 09:05:09 PM 50.9000 -94.8167 64° Northeast 520 598 37,000  Level Winnipeg Center
Thu 09:06:09 PM 50.9667 -94.6333 60° Northeast 520 598 37,000  Level Winnipeg Center
Thu 09:07:09 PM 51.0167 -94.4167 70° East 530 610 37,000  Level Winnipeg Center
Thu 09:08:09 PM 51.0833 -94.2000 64° Northeast 530 610 37,000  Level Winnipeg Center
Thu 09:09:09 PM 51.1500 -94.0000 62° Northeast 530 610 37,000  Level Winnipeg Center
Thu 09:10:09 PM 51.2167 -93.7833 64° Northeast 530 610 37,000  Level Winnipeg Center
Thu 09:11:09 PM 51.2833 -93.5667 64° Northeast 530 610 37,000  Level Winnipeg Center
Thu 09:12:09 PM 51.3667 -93.3500 58° Northeast 530 610 37,000  Level Winnipeg Center
Thu 09:13:09 PM 51.4167 -93.1500 68° East 530 610 37,000  Level Winnipeg Center
Thu 09:14:09 PM 51.5000 -92.9333 58° Northeast 540 621 37,000  Level Winnipeg Center
Thu 09:15:09 PM 51.5833 -92.7333 56° Northeast 530 610 37,000  Level Winnipeg Center
Thu 09:16:09 PM 51.6500 -92.5333 62° Northeast 530 610 37,000  Level Winnipeg Center
Thu 09:17:09 PM 51.7333 -92.3167 58° Northeast 530 610 37,000  Level Winnipeg Center
Thu 09:18:09 PM 51.7833 -92.1167 68° East 530 610 37,000  Level Winnipeg Center
Thu 09:19:09 PM 51.8500 -91.8667 67° East 530 610 37,000  Level Winnipeg Center
Thu 09:20:09 PM 51.9000 -91.6500 69° East 540 621 37,000  Level Winnipeg Center
Thu 09:21:09 PM 51.9333 -91.4167 77° East 540 621 37,000  Level Winnipeg Center
Thu 09:22:09 PM 52.0000 -91.2000 63° Northeast 540 621 37,000  Level Winnipeg Center
Thu 09:23:09 PM 52.0500 -90.9667 71° East 540 621 37,000  Level Winnipeg Center
Thu 09:24:09 PM 52.0833 -90.7167 78° East 540 621 37,000 150 Level Winnipeg Center
Thu 09:25:09 PM 52.1500 -90.5167 61° Northeast 540 621 37,300 300 Climbing Winnipeg Center
Thu 09:26:09 PM 52.2000 -90.2667 72° East 550 633 37,600 400 Climbing Winnipeg Center
Thu 09:27:09 PM 52.2333 -90.0333 77° East 550 633 38,100 450 Climbing Winnipeg Center
Thu 09:28:09 PM 52.2500 -89.7667 84° East 560 644 38,500 425 Climbing Winnipeg Center
Thu 09:29:16 PM 52.2667 -89.4667 85° East 550 633 39,000 250 Climbing Edmonton Center
Thu 09:30:09 PM 52.3000 -89.2667 75° East 550 633 39,000  Level Winnipeg Center
Thu 09:31:09 PM 52.3167 -89.0333 83° East 550 633 39,000  Level Winnipeg Center
Thu 09:32:09 PM 52.3667 -88.7833 72° East 560 644 39,000  Level Winnipeg Center
Thu 09:33:09 PM 52.4167 -88.5500 71° East 550 633 39,000  Level Winnipeg Center
Thu 09:34:09 PM 52.5000 -88.3333 58° Northeast 540 621 39,000  Level Winnipeg Center
Thu 09:35:09 PM 52.6000 -88.1333 50° Northeast 540 621 39,000  Level Winnipeg Center
Thu 09:36:16 PM 52.6667 -87.8833 66° East 540 621 39,000  Level Edmonton Center
Thu 09:37:16 PM 52.7500 -87.6667 58° Northeast 540 621 39,000  Level Edmonton Center
Thu 09:38:16 PM 52.8500 -87.4667 50° Northeast 540 621 39,000  Level Edmonton Center
Thu 09:39:16 PM 52.9167 -87.2667 61° Northeast 550 633 39,000  Level Edmonton Center
Thu 09:40:16 PM 52.9833 -87.0333 65° Northeast 550 633 39,000  Level Edmonton Center
Thu 09:41:16 PM 53.0667 -86.7833 61° Northeast 550 633 39,000  Level Edmonton Center
Thu 09:42:16 PM 53.1333 -86.5500 64° Northeast 550 633 39,000  Level Edmonton Center
Thu 09:43:16 PM 53.2000 -86.3500 61° Northeast 550 633 39,000 -250 Level Edmonton Center
Thu 09:44:16 PM 53.2833 -86.1000 61° Northeast 550 633 38,500 -800 Descending Edmonton Center
Thu 09:45:16 PM 53.3500 -85.8667 64° Northeast 560 644 37,400 -750 Descending Edmonton Center
Thu 09:46:16 PM 53.4167 -85.6333 64° Northeast 570 656 37,000 -200 Descending Edmonton Center
Thu 09:47:16 PM 53.4833 -85.3833 66° East 570 656 37,000  Level Edmonton Center
Thu 09:48:16 PM 53.5667 -85.1500 59° Northeast 570 656 37,000  Level Edmonton Center
Thu 09:49:16 PM 53.6333 -84.9000 66° East 570 656 37,000  Level Edmonton Center
Thu 09:50:16 PM 53.7000 -84.6667 64° Northeast 580 667 37,000  Level Edmonton Center
Thu 09:51:16 PM 53.7667 -84.4167 66° East 580 667 37,000  Level Edmonton Center
Thu 09:52:16 PM 53.8500 -84.1667 60° Northeast 580 667 37,000  Level Edmonton Center
Thu 09:53:34 PM 53.9667 -83.9833 43° Northeast 580 667 37,000  Level Montreal Center
Thu 09:54:34 PM 54.0333 -83.7500 64° Northeast 580 667 37,000  Level Montreal Center
Thu 09:55:34 PM 54.1000 -83.5000 65° Northeast 580 667 37,000  Level Montreal Center
Thu 09:56:16 PM 54.1167 -83.1833 85° East 580 667 37,000  Level Edmonton Center
Thu 09:57:16 PM 54.1833 -82.9333 65° Northeast 580 667 37,000  Level Edmonton Center
Thu 09:58:16 PM 54.2667 -82.6833 60° Northeast 580 667 37,000  Level Edmonton Center
Thu 09:59:16 PM 54.3167 -82.4333 71° East 580 667 37,000  Level Edmonton Center
Thu 10:00:16 PM 54.4000 -82.1667 62° Northeast 580 667 37,000  Level Edmonton Center
Thu 10:01:16 PM 54.4667 -81.9167 65° Northeast 580 667 37,000  Level Edmonton Center
Thu 10:02:16 PM 54.5167 -81.6667 71° East 580 667 37,000  Level Edmonton Center
Thu 10:03:16 PM 54.5833 -81.4167 65° Northeast 580 667 37,000  Level Edmonton Center
Thu 10:04:34 PM 54.7167 -81.2167 41° Northeast 570 656 37,000  Level Montreal Center
Thu 10:05:34 PM 54.7667 -80.9833 70° East 580 667 37,000  Level Montreal Center
Thu 10:06:16 PM 54.7833 -80.6333 85° East 570 656 37,000  Level Edmonton Center
Thu 10:07:16 PM 54.8333 -80.4167 68° East 570 656 37,000  Level Edmonton Center
Thu 10:08:16 PM 54.9000 -80.1500 66° East 570 656 37,000  Level Edmonton Center
Thu 10:09:34 PM 55.0167 -79.9500 44° Northeast 570 656 37,000  Level Montreal Center
Thu 10:10:34 PM 55.0833 -79.6667 68° East 570 656 37,000  Level Montreal Center
Thu 10:11:16 PM 55.0833 -79.3667 90° East 570 656 37,000  Level Edmonton Center
Thu 10:12:16 PM 55.1500 -79.1500 62° Northeast 570 656 37,000  Level Edmonton Center
Thu 10:13:16 PM 55.2167 -78.8833 66° East 570 656 37,000  Level Edmonton Center
Thu 10:14:16 PM 55.2667 -78.6167 72° East 560 644 37,000  Level Edmonton Center
Thu 10:15:16 PM 55.3333 -78.3833 63° Northeast 560 644 37,000  Level Edmonton Center
Thu 10:16:16 PM 55.3833 -78.1167 72° East 560 644 37,000  Level Edmonton Center
Thu 10:17:16 PM 55.4500 -77.8833 63° Northeast 560 644 37,000  Level Edmonton Center
Thu 10:18:16 PM 55.5000 -77.6167 72° East 560 644 37,000  Level Edmonton Center
Thu 10:19:16 PM 55.5500 -77.3833 69° East 560 644 37,000  Level Edmonton Center
Thu 10:20:16 PM 55.6167 -77.1000 67° East 560 644 37,000  Level Edmonton Center
Thu 10:21:16 PM 55.6667 -76.8667 69° East 550 633 37,000  Level Edmonton Center
Thu 10:22:16 PM 55.7167 -76.5667 73° East 550 633 37,000  Level Edmonton Center
Thu 10:23:34 PM 55.8333 -76.3833 41° Northeast 550 633 37,000  Level Montreal Center
Thu 10:24:34 PM 55.9000 -76.1500 63° Northeast 550 633 37,000  Level Montreal Center
Thu 10:25:34 PM 55.9500 -75.8667 72° East 550 633 37,000  Level Montreal Center
Thu 10:26:34 PM 56.0000 -75.6000 71° East 550 633 37,000  Level Montreal Center
Thu 10:27:34 PM 56.0500 -75.3667 69° East 540 621 37,000  Level Montreal Center
Thu 10:28:34 PM 56.1167 -75.1167 64° Northeast 550 633 37,000  Level Montreal Center
Thu 10:29:34 PM 56.1667 -74.8500 71° East 540 621 37,000  Level Montreal Center
Thu 10:30:34 PM 56.2167 -74.6000 70° East 540 621 37,000  Level Montreal Center
Thu 10:31:34 PM 56.2500 -74.3333 77° East 550 633 37,000  Level Montreal Center
Thu 10:32:34 PM 56.3000 -74.0833 70° East 550 633 37,000  Level Montreal Center
Thu 10:33:34 PM 56.3667 -73.8000 67° East 540 621 37,000  Level Montreal Center
Thu 10:34:34 PM 56.4167 -73.5500 70° East 540 621 37,000  Level Montreal Center
Thu 10:35:34 PM 56.4500 -73.2833 77° East 550 633 37,000  Level Montreal Center
Thu 10:36:34 PM 56.5000 -73.0333 70° East 540 621 37,000  Level Montreal Center
Thu 10:37:34 PM 56.5500 -72.7500 72° East 540 621 37,000  Level Montreal Center
Thu 10:38:34 PM 56.5833 -72.5000 76° East 540 621 37,000  Level Montreal Center
Thu 10:39:34 PM 56.6500 -72.2500 64° Northeast 540 621 37,000  Level Montreal Center
Thu 10:40:34 PM 56.7000 -71.9833 71° East 540 621 37,000  Level Montreal Center
Thu 10:41:34 PM 56.7333 -71.7000 78° East 550 633 37,000  Level Montreal Center
Thu 10:42:34 PM 56.7833 -71.4500 70° East 550 633 37,000  Level Montreal Center
Thu 10:43:34 PM 56.8167 -71.2000 76° East 540 621 37,000  Level Montreal Center
Thu 10:44:34 PM 56.8500 -70.9167 78° East 540 621 37,000  Level Montreal Center
Thu 10:45:34 PM 56.9000 -70.6667 70° East 540 621 37,000  Level Montreal Center
Thu 10:46:34 PM 56.9500 -70.3667 73° East 540 621 37,000  Level Montreal Center
Thu 10:47:34 PM 57.0000 -70.1167 70° East 540 621 37,000  Level Montreal Center
Thu 10:48:34 PM 57.0333 -69.8667 76° East 540 621 37,000  Level Montreal Center
Thu 10:49:34 PM 57.0833 -69.6167 70° East 540 621 37,000  Level Montreal Center
Thu 10:50:34 PM 57.1333 -69.3500 71° East 540 621 37,000  Level Montreal Center
Thu 10:51:34 PM 57.2000 -69.1000 64° Northeast 540 621 37,000  Level Montreal Center
Thu 10:52:34 PM 57.2500 -68.8333 71° East 540 621 37,000  Level Montreal Center
Thu 10:53:34 PM 57.3000 -68.5667 71° East 540 621 37,000  Level Montreal Center
Thu 10:54:34 PM 57.3500 -68.3167 70° East 530 610 37,000  Level Montreal Center
Thu 10:55:34 PM 57.4000 -68.0500 71° East 530 610 37,000  Level Montreal Center
Thu 10:56:34 PM 57.4500 -67.7833 71° East 540 621 37,000  Level Montreal Center
Thu 10:57:34 PM 57.5000 -67.5167 71° East 540 621 37,000 50 Level Montreal Center
Thu 10:58:34 PM 57.5500 -67.2667 69° East 530 610 37,100 400 Climbing Montreal Center
Thu 10:59:34 PM 57.6000 -67.0000 71° East 540 621 37,800 450 Climbing Montreal Center
Thu 11:00:34 PM 57.6667 -66.7500 63° Northeast 540 621 38,000 100 Climbing Montreal Center
Thu 11:01:34 PM 57.7167 -66.5000 69° East 540 621 38,000  Level Montreal Center
Thu 11:02:34 PM 57.7667 -66.2333 71° East 540 621 38,000  Level Montreal Center
Thu 11:03:34 PM 57.8167 -65.9333 73° East 540 621 38,000  Level Montreal Center
Thu 11:04:34 PM 57.8667 -65.6667 70° East 540 621 38,000  Level Montreal Center
Thu 11:05:34 PM 57.9000 -65.3833 77° East 540 621 38,000  Level Montreal Center
Thu 11:06:34 PM 57.9500 -65.1167 70° East 540 621 38,000  Level Montreal Center
Thu 11:07:34 PM 58.0000 -64.8500 70° East 540 621 38,000  Level Montreal Center
Thu 11:08:34 PM 58.0500 -64.6167 68° East 530 610 38,000  Level Montreal Center
Thu 11:09:34 PM 58.0833 -64.3500 77° East 530 610 38,000  Level Montreal Center
Thu 11:10:34 PM 58.1333 -64.0667 71° East 530 610 38,000  Level Montreal Center
Thu 11:11:34 PM 58.1667 -63.8000 77° East 530 610 38,000  Level Montreal Center
Thu 11:12:34 PM 58.2167 -63.5333 70° East 530 610 38,000  Level Montreal Center
Thu 11:13:34 PM 58.2667 -63.2833 69° East 530 610 38,000  Level Montreal Center
Thu 11:14:34 PM 58.3000 -63.0167 77° East 530 610 38,000  Level Montreal Center
Thu 11:15:34 PM 58.3500 -62.7000 73° East 530 610 38,000  Level Montreal Center
Thu 11:16:34 PM 58.4000 -62.4167 71° East 530 610 38,000  Level Montreal Center
Thu 11:17:34 PM 58.4167 -62.1500 83° East 540 621 38,000  Level Montreal Center
Thu 11:18:34 PM 58.4833 -61.9000 63° Northeast 530 610 38,000  Level Montreal Center
Thu 11:19:34 PM 58.5000 -61.6333 83° East 530 610 38,000  Level Montreal Center
Thu 11:20:34 PM 58.5333 -61.3500 77° East 530 610 38,000  Level Montreal Center
Thu 11:21:34 PM 58.5667 -61.0833 76° East 530 610 38,000  Level Montreal Center
Thu 11:22:34 PM 58.6167 -60.8000 71° East 530 610 38,000  Level Montreal Center
Thu 11:23:34 PM 58.6500 -60.5167 77° East 530 610 38,000  Level Montreal Center
Thu 11:24:34 PM 58.6833 -60.2333 77° East 530 610 38,000  Level Montreal Center
Thu 11:25:34 PM 58.7000 -59.9667 83° East 520 598 38,000  Level Montreal Center
Thu 11:26:34 PM 58.7167 -59.6667 84° East 520 598 38,000  Level Montreal Center
Thu 11:27:34 PM 58.7333 -59.4000 83° East 520 598 38,000  Level Montreal Center
Thu 11:28:34 PM 58.7500 -59.1167 83° East 520 598 38,000  Level Montreal Center
Thu 11:29:34 PM 58.7667 -58.8500 83° East 530 610 38,000  Level Montreal Center
Thu 11:30:34 PM 58.7833 -58.5667 83° East 530 610 38,000  Level Montreal Center
Thu 11:31:34 PM 58.7833 -58.3000 90° East 530 610 38,000  Level Montreal Center
Thu 11:32:10 PM 58.8167 -58.1667 64° Northeast 540 621 38,000  Level Gander Center
Thu 11:33:10 PM 58.8333 -57.8667 84° East 530 610 38,000  Level Gander Center
Thu 11:34:10 PM 58.8333 -57.6167 90° East 530 610 38,000  Level Gander Center
Thu 11:35:10 PM 58.8667 -57.3167 78° East 530 610 38,000  Level Gander Center
Thu 11:36:10 PM 58.8667 -57.0333 90° East 530 610 38,000  Level Gander Center
Thu 11:37:10 PM 58.8833 -56.7667 83° East 530 610 38,000  Level Gander Center
Thu 11:38:10 PM 58.9000 -56.4833 83° East 520 598 38,000  Level Gander Center
Thu 11:39:10 PM 58.9000 -56.1833 90° East 520 598 38,000  Level Gander Center
Thu 11:40:10 PM 58.9167 -55.9167 83° East 520 598 38,000  Level Gander Center
Thu 11:41:10 PM 58.9333 -55.6333 83° East 520 598 38,000  Level Gander Center
Thu 11:42:10 PM 58.9333 -55.3333 90° East 530 610 38,000  Level Gander Center
Thu 11:43:10 PM 58.9500 -55.0833 83° East 530 610 38,000  Level Gander Center
Thu 11:44:10 PM 58.9667 -54.7833 84° East 530 610 38,000  Level Gander Center
Thu 11:45:10 PM 58.9667 -54.4833 90° East 530 610 38,000  Level Gander Center
Thu 11:46:10 PM 58.9667 -54.2000 90° East 530 610 38,000  Level Gander Center
Thu 11:47:10 PM 58.9667 -53.9333 90° East 530 610 38,000  Level Gander Center
Thu 11:48:10 PM 58.9833 -53.6500 83° East 530 610 38,000  Level Gander Center
Thu 11:49:10 PM 58.9833 -53.3500 90° East 530 610 38,000  Level Gander Center
Thu 11:50:10 PM 58.9833 -53.0833 90° East 520 598 38,000  Level Gander Center
Thu 11:51:34 PM 59.0000 -52.6667 85° East 530 610 38,000  Level Gander Center
Thu 11:52:34 PM 59.0000 -52.4000 90° East 520 598 38,000  Level Gander Center
Thu 11:53:34 PM 59.0000 -52.1167 90° East 520 598 38,000  Level Gander Center
Thu 11:54:34 PM 59.0000 -51.8167 90° East 520 598 38,000  Level Gander Center
Thu 11:55:34 PM 59.0000 -51.5667 90° East 520 598 38,000  Level Gander Center
Thu 11:56:10 PM 59.0000 -51.4000 90° East 520 598 38,000  Level Gander Center
Thu 11:57:10 PM 59.0000 -51.1000 90° East 520 598 38,000  Level Gander Center
Thu 11:58:10 PM 59.0167 -50.8333 83° East 520 598 38,000  Level Gander Center
Thu 11:59:10 PM 59.0167 -50.5500 90° East 520 598 38,000  Level Gander Center
Fri 12:00:10 AM 59.0000 -50.2500 96° East 520 598 38,000  Level Gander Center
Fri 12:01:10 AM 59.0000 -50.0000 90° East 520 598 38,000  Level Gander Center
Fri 12:02:10 AM 59.0000 -49.7000 90° East 530 610 38,000  Level Gander Center
Fri 12:04:10 AM 59.0167 -49.1333 86° East 530 610 38,000  Level Gander Center
Fri 12:05:10 AM 59.0500 -48.8333 78° East 530 610 38,000  Level Gander Center
Fri 12:06:10 AM 59.0500 -48.5667 90° East 530 610 38,000  Level Gander Center
Fri 12:07:10 AM 59.0667 -48.2667 84° East 530 610 38,000  Level Gander Center
Fri 12:08:10 AM 59.0667 -48.0000 90° East 530 610 38,000  Level Gander Center
Fri 12:09:10 AM 59.0667 -47.7167 90° East 540 621 38,000  Level Gander Center
Fri 12:10:10 AM 59.0667 -47.4167 90° East 540 621 38,000  Level Gander Center
Fri 12:11:10 AM 59.0833 -47.1167 84° East 540 621 38,000  Level Gander Center
Fri 12:12:10 AM 59.0833 -46.8500 90° East 530 610 38,000  Level Gander Center
Fri 12:13:10 AM 59.0833 -46.5500 90° East 540 621 38,000  Level Gander Center
Fri 12:14:10 AM 59.0833 -46.2500 90° East 540 621 38,000  Level Gander Center
Fri 12:15:10 AM 59.0833 -45.9833 90° East 530 610 38,000  Level Gander Center
Fri 12:16:10 AM 59.0833 -45.6833 90° East 530 610 38,000  Level Gander Center
Fri 12:17:10 AM 59.0833 -45.4333 90° East 530 610 38,000  Level Gander Center
Fri 12:18:10 AM 59.0833 -45.1333 90° East 530 610 38,000  Level Gander Center
Fri 12:19:10 AM 59.1000 -44.8167 84° East 530 610 38,000  Level Gander Center
Fri 12:20:10 AM 59.1000 -44.5667 90° East 530 610 38,000  Level Gander Center
Fri 12:21:10 AM 59.1000 -44.2667 90° East 530 610 38,000  Level Gander Center
Fri 12:22:10 AM 59.1000 -44.0000 90° East 530 610 38,000  Level Gander Center
Fri 12:23:10 AM 59.1000 -43.7000 90° East 530 610 38,000  Level Gander Center
Fri 12:24:10 AM 59.0833 -43.4000 96° East 540 621 38,000  Level Gander Center
Fri 12:25:10 AM 59.0833 -43.1000 90° East 540 621 38,000  Level Gander Center
Fri 12:26:10 AM 59.0833 -42.8500 90° East 550 633 38,000  Level Gander Center
Fri 12:27:10 AM 59.0667 -42.5500 96° East 550 633 38,000  Level Gander Center
Fri 12:28:10 AM 59.0667 -42.2500 90° East 540 621 38,000  Level Gander Center
Fri 12:29:10 AM 59.0500 -41.9500 96° East 540 621 38,000  Level Gander Center
Fri 12:30:10 AM 59.0500 -41.6667 90° East 540 621 38,000  Level Gander Center
Fri 12:31:10 AM 59.0333 -41.3667 96° East 550 633 38,000  Level Gander Center
Fri 12:32:10 AM 59.0500 -41.1000 83° East 540 621 38,000  Level Gander Center
Fri 12:33:10 AM 59.0333 -40.8000 96° East 540 621 38,000  Level Gander Center
Fri 12:34:10 AM 59.0167 -40.5000 96° East 540 621 38,000  Level Gander Center
Fri 12:35:10 AM 59.0167 -40.2167 90° East 540 621 38,000  Level Gander Center
Fri 12:36:10 AM 59.0000 -39.9500 97° East 540 621 38,000  Level Gander Center
Fri 12:37:10 AM 58.9833 -39.6500 96° East 550 633 38,000  Level Gander Center
Fri 12:38:10 AM 58.9500 -39.3667 103° East 550 633 38,000  Level Gander Center
Fri 12:39:10 AM 58.9500 -39.0833 90° East 550 633 38,000  Level Gander Center
Fri 12:40:10 AM 58.9333 -38.7833 96° East 550 633 38,000  Level Gander Center
Fri 12:41:10 AM 58.9167 -38.5000 96° East 550 633 38,000  Level Gander Center
Fri 12:42:10 AM 58.8833 -38.2167 103° East 540 621 38,000  Level Gander Center
Fri 12:43:10 AM 58.8667 -37.9167 96° East 540 621 38,000  Level Gander Center
Fri 12:44:10 AM 58.8500 -37.6333 96° East 540 621 38,000  Level Gander Center
Fri 12:45:10 AM 58.8167 -37.3333 102° East 540 621 38,000  Level Gander Center
Fri 12:46:10 AM 58.7833 -37.0667 103° East 550 633 38,000  Level Gander Center
Fri 12:47:10 AM 58.7667 -36.7667 96° East 550 633 38,000  Level Gander Center
Fri 12:48:10 AM 58.7500 -36.4833 96° East 550 633 38,000  Level Gander Center
Fri 12:49:10 AM 58.7167 -36.2000 103° East 550 633 38,000  Level Gander Center
Fri 12:50:10 AM 58.6833 -35.9167 103° East 550 633 38,000  Level Gander Center
Fri 12:51:10 AM 58.6667 -35.6333 96° East 550 633 38,000  Level Gander Center
Fri 12:52:10 AM 58.6500 -35.3500 96° East 550 633 38,000  Level Gander Center
Fri 12:54:00 AM 58.5924 -34.8410 102° East  Level FlightAware Approximate
Fri 01:01:00 AM 58.3653 -32.9079 102° East  Level FlightAware Approximate
Fri 01:02:00 AM 58.3328 -32.6329 102° East  Level FlightAware Approximate
Fri 01:03:00 AM 58.3008 -32.3579 102° East  Level FlightAware Approximate
Fri 01:04:00 AM 58.2683 -32.0834 103° East  Level FlightAware Approximate
Fri 01:05:00 AM 58.2352 -31.8094 103° East  Level FlightAware Approximate
Fri 01:06:00 AM 58.2015 -31.5359 103° East  Level FlightAware Approximate
Fri 01:07:00 AM 58.1672 -31.2630 103° East  Level FlightAware Approximate
Fri 01:08:00 AM 58.1323 -30.9905 104° East  Level FlightAware Approximate
Fri 01:09:00 AM 58.0969 -30.7186 104° East  Level FlightAware Approximate
Fri 01:10:00 AM 58.0608 -30.4473 104° East  Level FlightAware Approximate
Fri 01:11:00 AM 58.0242 -30.1765 104° East  Level FlightAware Approximate
Fri 01:12:00 AM 58.0038 -29.9034 86° East  Level FlightAware Approximate
Fri 01:13:00 AM 58.0142 -29.6248 86° East  Level FlightAware Approximate
Fri 01:14:00 AM 58.0240 -29.3461 86° East  Level FlightAware Approximate
Fri 01:15:00 AM 58.0332 -29.0673 86° East  Level FlightAware Approximate
Fri 01:16:00 AM 58.0418 -28.7883 87° East  Level FlightAware Approximate
Fri 01:17:00 AM 58.0498 -28.5092 87° East  Level FlightAware Approximate
Fri 01:18:00 AM 58.0572 -28.2300 87° East  Level FlightAware Approximate
Fri 01:19:00 AM 58.0640 -27.9506 87° East  Level FlightAware Approximate
Fri 01:20:00 AM 58.0701 -27.6712 87° East  Level FlightAware Approximate
Fri 01:21:00 AM 58.0757 -27.3917 88° East  Level FlightAware Approximate
Fri 01:22:00 AM 58.0806 -27.1121 88° East  Level FlightAware Approximate
Fri 01:23:00 AM 58.0849 -26.8324 88° East  Level FlightAware Approximate
Fri 01:24:00 AM 58.0886 -26.5526 88° East  Level FlightAware Approximate
Fri 01:25:00 AM 58.0917 -26.2728 89° East  Level FlightAware Approximate
Fri 01:26:00 AM 58.0942 -25.9930 89° East  Level FlightAware Approximate
Fri 01:27:00 AM 58.0961 -25.7131 89° East  Level FlightAware Approximate
Fri 01:28:00 AM 58.0973 -25.4332 89° East  Level FlightAware Approximate
Fri 01:29:00 AM 58.0980 -25.1533 90° East  Level FlightAware Approximate
Fri 01:30:00 AM 58.0980 -24.8734 90° East  Level FlightAware Approximate
Fri 01:31:00 AM 58.0974 -24.5935 90° East  Level FlightAware Approximate
Fri 01:32:00 AM 58.0962 -24.3135 90° East  Level FlightAware Approximate
Fri 01:33:00 AM 58.0944 -24.0337 91° East  Level FlightAware Approximate
Fri 01:34:00 AM 58.0920 -23.7538 91° East  Level FlightAware Approximate
Fri 01:35:00 AM 58.0890 -23.4740 91° East  Level FlightAware Approximate
Fri 01:36:00 AM 58.0853 -23.1943 91° East  Level FlightAware Approximate
Fri 01:37:00 AM 58.0811 -22.9146 92° East  Level FlightAware Approximate
Fri 01:38:00 AM 58.0762 -22.6349 92° East  Level FlightAware Approximate
Fri 01:39:00 AM 58.0707 -22.3554 92° East  Level FlightAware Approximate
Fri 01:40:00 AM 58.0646 -22.0760 92° East  Level FlightAware Approximate
Fri 01:41:00 AM 58.0579 -21.7966 92° East  Level FlightAware Approximate
Fri 01:42:00 AM 58.0505 -21.5174 93° East  Level FlightAware Approximate
Fri 01:43:00 AM 58.0426 -21.2382 93° East  Level FlightAware Approximate
Fri 01:44:00 AM 58.0341 -20.9592 93° East  Level FlightAware Approximate
Fri 01:45:00 AM 58.0249 -20.6804 93° East  Level FlightAware Approximate
Fri 01:46:00 AM 58.0152 -20.4017 94° East  Level FlightAware Approximate
Fri 01:47:00 AM 58.0048 -20.1231 94° East  Level FlightAware Approximate
Fri 01:48:00 AM 58.0030 -19.8444 88° East  Level FlightAware Approximate
Fri 01:49:00 AM 58.0078 -19.5654 88° East  Level FlightAware Approximate
Fri 01:50:00 AM 58.0120 -19.2862 88° East  Level FlightAware Approximate
Fri 01:51:00 AM 58.0156 -19.0071 88° East  Level FlightAware Approximate
Fri 01:52:00 AM 58.0186 -18.7278 89° East  Level FlightAware Approximate
Fri 01:53:00 AM 58.0210 -18.4486 89° East  Level FlightAware Approximate
Fri 01:54:00 AM 58.0228 -18.1693 89° East  Level FlightAware Approximate
Fri 01:55:00 AM 58.0239 -17.8899 89° East  Level FlightAware Approximate
Fri 01:56:00 AM 58.0245 -17.6106 90° East  Level FlightAware Approximate
Fri 01:57:00 AM 58.0244 -17.3312 90° East  Level FlightAware Approximate
Fri 01:58:00 AM 58.0237 -17.0519 90° East  Level FlightAware Approximate
Fri 01:59:00 AM 58.0224 -16.7726 90° East  Level FlightAware Approximate
Fri 02:00:00 AM 58.0205 -16.4933 91° East  Level FlightAware Approximate
Fri 02:01:00 AM 58.0180 -16.2140 91° East  Level FlightAware Approximate
Fri 02:02:00 AM 58.0149 -15.9348 91° East  Level FlightAware Approximate
Fri 02:03:00 AM 58.0112 -15.6556 91° East  Level FlightAware Approximate
Fri 02:04:00 AM 58.0068 -15.3765 92° East  Level FlightAware Approximate
Fri 02:05:00 AM 58.0019 -15.0975 92° East  Level FlightAware Approximate
Fri 02:06:00 AM 57.9657 -14.8303 111° Southeast  Level FlightAware Approximate
Fri 02:07:00 AM 57.9126 -14.5703 111° Southeast  Level FlightAware Approximate
Fri 02:08:00 AM 57.8589 -14.3109 111° Southeast  Level FlightAware Approximate
Fri 02:09:00 AM 57.8047 -14.0524 111° Southeast  Level FlightAware Approximate
Fri 02:10:00 AM 57.7500 -13.7946 112° Southeast  Level FlightAware Approximate
Fri 02:11:00 AM 57.6963 -13.5365 111° Southeast  Level FlightAware Approximate
Fri 02:12:00 AM 57.6427 -13.2787 111° Southeast  Level FlightAware Approximate
Fri 02:13:00 AM 57.5886 -13.0217 111° Southeast  Level FlightAware Approximate
Fri 02:14:00 AM 57.5340 -12.7654 112° Southeast  Level FlightAware Approximate
Fri 02:14:57 AM 57.5980 -12.8340 112° Southeast 509 586 38,000  Level FlightAware ADS-B
Fri 02:15:00 AM 57.4788 -12.5099 112° Southeast  Level FlightAware Approximate
Fri 02:15:27 AM 57.5720 -12.7040 110° East 508 585 38,000  Level FlightAware ADS-B
Fri 02:16:06 AM 57.5390 -12.5400 110° East 508 585 38,000  Level FlightAware ADS-B
Fri 02:16:36 AM 57.5140 -12.4140 110° East 509 586 38,000  Level FlightAware ADS-B
Fri 02:17:11 AM 57.4860 -12.2740 110° East 507 583 38,000  Level FlightAware ADS-B
Fri 02:17:52 AM 57.4520 -12.1080 111° Southeast 508 585 38,000  Level FlightAware ADS-B
Fri 02:18:31 AM 57.4200 -11.9490 110° East 509 586 38,000  Level FlightAware ADS-B
Fri 02:19:07 AM 57.3900 -11.8030 111° Southeast 509 586 38,000  Level FlightAware ADS-B
Fri 02:19:41 AM 57.3610 -11.6640 111° Southeast 506 582 38,000  Level FlightAware ADS-B
Fri 02:20:17 AM 57.3320 -11.5250 111° Southeast 504 580 38,000  Level FlightAware ADS-B
Fri 02:20:51 AM 57.3010 -11.3790 111° Southeast 506 582 38,000  Level FlightAware ADS-B
Fri 02:21:26 AM 57.2720 -11.2400 111° Southeast 507 583 38,000  Level FlightAware ADS-B
Fri 02:22:06 AM 57.2370 -11.0770 112° Southeast 507 583 38,000  Level FlightAware ADS-B
Fri 02:22:47 AM 57.2020 -10.9140 112° Southeast 507 583 38,000  Level FlightAware ADS-B
Fri 02:23:16 AM 57.1770 -10.7980 112° Southeast 506 582 38,000  Level FlightAware ADS-B
Fri 02:23:53 AM 57.1460 -10.6570 112° Southeast 506 582 38,000  Level FlightAware ADS-B
Fri 02:24:37 AM 57.1100 -10.4940 112° Southeast 510 587 38,000  Level FlightAware ADS-B
Fri 02:25:17 AM 57.0700 -10.3130 112° Southeast 511 588 38,000  Level FlightAware ADS-B
Fri 02:25:52 AM 57.0380 -10.1680 112° Southeast 511 588 38,000  Level FlightAware ADS-B
Fri 02:26:28 AM 57.0060 -10.0270 113° Southeast 514 592 38,000  Level FlightAware ADS-B
Fri 02:27:03 AM 56.9790 -9.8840 109° East 514 592 38,000  Level FlightAware ADS-B
Fri 02:27:39 AM 56.9500 -9.7330 109° East 515 593 38,000  Level FlightAware ADS-B
Fri 02:28:13 AM 56.9220 -9.5930 110° East 518 596 38,000  Level FlightAware ADS-B
Fri 02:28:43 AM 56.8980 -9.4720 110° East 517 595 38,000  Level FlightAware ADS-B
Fri 02:29:24 AM 56.8650 -9.3050 110° East 516 594 38,000  Level FlightAware ADS-B
Fri 02:29:59 AM 56.8360 -9.1600 110° East 515 593 38,000  Level FlightAware ADS-B
Fri 02:30:34 AM 56.8070 -9.0160 110° East 513 590 38,000  Level FlightAware ADS-B
Fri 02:31:06 AM 56.7820 -8.8920 110° East 512 589 38,000  Level FlightAware ADS-B
Fri 02:31:08 AM 56.7785 -8.8750 110° East 474 545 38,000  Level FlightAware UK
Fri 02:31:38 AM 56.7537 -8.7514 110° East 474 545 38,000  Level FlightAware UK
Fri 02:31:39 AM 56.7540 -8.7530 110° East 514 592 38,000  Level FlightAware ADS-B
Fri 02:32:15 AM 56.7240 -8.6110 111° Southeast 517 595 38,000  Level FlightAware ADS-B
Fri 02:32:55 AM 56.6900 -8.4450 110° East 515 593 38,000  Level FlightAware ADS-B
Fri 02:33:30 AM 56.6600 -8.3020 111° Southeast 514 592 38,000  Level FlightAware ADS-B
Fri 02:34:00 AM 56.6350 -8.1820 111° Southeast 512 589 38,000  Level FlightAware ADS-B
Fri 02:34:35 AM 56.6050 -8.0390 111° Southeast 511 588 38,000  Level FlightAware ADS-B
Fri 02:34:38 AM 56.6018 -8.0235 111° Southeast 476 548 38,000  Level FlightAware UK
Fri 02:35:08 AM 56.5761 -7.9033 111° Southeast 476 548 38,000  Level FlightAware UK
Fri 02:35:22 AM 56.5670 -7.8610 111° Southeast 509 586 38,000  Level FlightAware ADS-B
Fri 02:36:01 AM 56.5330 -7.7020 111° Southeast 511 588 38,000  Level FlightAware ADS-B
Fri 02:36:38 AM 56.4987 -7.5438 111° Southeast 478 550 38,000  Level FlightAware UK
Fri 02:36:42 AM 56.4960 -7.5330 111° Southeast 513 590 38,000  Level FlightAware ADS-B
Fri 02:37:18 AM 56.4650 -7.3900 111° Southeast 512 589 38,000  Level FlightAware ADS-B
Fri 02:37:54 AM 56.4360 -7.2570 111° Southeast 515 593 38,000  Level FlightAware ADS-B
Fri 02:38:28 AM 56.4040 -7.1120 112° Southeast 514 592 38,000  Level FlightAware ADS-B
Fri 02:39:03 AM 56.3720 -6.9720 112° Southeast 515 593 38,000  Level FlightAware ADS-B
Fri 02:39:39 AM 56.3398 -6.8263 112° Southeast 474 545 38,000  Level FlightAware UK
Fri 02:39:39 AM 56.3410 -6.8310 112° Southeast 516 594 38,000  Level FlightAware ADS-B
Fri 02:40:09 AM 56.3129 -6.7070 112° Southeast 476 548 38,000  Level FlightAware UK
Fri 02:40:13 AM 56.3100 -6.6940 112° Southeast 517 595 38,000  Level FlightAware ADS-B
Fri 02:40:49 AM 56.2790 -6.5570 112° Southeast 517 595 38,000  Level FlightAware ADS-B
Fri 02:41:28 AM 56.2410 -6.3940 113° Southeast 520 598 38,000  Level FlightAware ADS-B
Fri 02:42:09 AM 56.2040 -6.2320 112° Southeast 523 602 38,000  Level FlightAware ADS-B
Fri 02:42:39 AM 56.1754 -6.1089 112° Southeast 478 550 38,000  Level FlightAware UK
Fri 02:42:44 AM 56.1720 -6.0940 112° Southeast 524 603 38,000  Level FlightAware ADS-B
Fri 02:43:22 AM 56.1370 -5.9440 113° Southeast 525 604 38,000  Level FlightAware ADS-B
Fri 02:43:56 AM 56.1030 -5.8020 113° Southeast 523 602 38,000  Level FlightAware ADS-B
Fri 02:44:39 AM 56.0628 -5.6305 113° Southeast 476 548 38,000  Level FlightAware UK
Fri 02:44:40 AM 56.0620 -5.6280 113° Southeast 522 601 38,000  Level FlightAware ADS-B
Fri 02:45:14 AM 56.0310 -5.4980 113° Southeast 521 600 38,000  Level FlightAware ADS-B
Fri 02:45:56 AM 55.9940 -5.3450 113° Southeast 521 600 38,000  Level FlightAware ADS-B
Fri 02:46:38 AM 55.9520 -5.1720 113° Southeast 521 600 38,000  Level FlightAware ADS-B
Fri 02:46:39 AM 55.9490 -5.1577 113° Southeast 480 552 38,000  Level FlightAware UK
Fri 02:47:09 AM 55.9202 -5.0399 113° Southeast 482 555 38,000  Level FlightAware UK
Fri 02:47:13 AM 55.9180 -5.0330 113° Southeast 519 597 38,000  Level FlightAware ADS-B
Fri 02:47:45 AM 55.8857 -4.8995 113° Southeast 484 557 38,000  Level FlightAware UK
Fri 02:47:49 AM 55.8860 -4.9000 113° Southeast 516 594 38,000  Level FlightAware ADS-B
Fri 02:48:27 AM 55.8470 -4.7430 114° Southeast 508 585 38,000  Level FlightAware ADS-B
Fri 02:48:57 AM 55.8180 -4.6280 114° Southeast 511 588 38,000  Level FlightAware ADS-B
Fri 02:49:32 AM 55.7850 -4.4920 113° Southeast 510 587 38,000  Level FlightAware ADS-B
Fri 02:50:12 AM 55.7460 -4.3410 115° Southeast 508 585 38,000  Level FlightAware ADS-B
Fri 02:50:43 AM 55.7170 -4.2260 114° Southeast 507 583 38,000  Level FlightAware ADS-B
Fri 02:51:17 AM 55.6850 -4.0980 114° Southeast 508 585 38,000  Level FlightAware ADS-B
Fri 02:51:57 AM 55.6450 -3.9420 114° Southeast 514 592 38,000  Level FlightAware ADS-B
Fri 02:52:23 AM 55.6200 -3.8450 114° Southeast 515 593 38,000  Level FlightAware ADS-B
Fri 02:53:03 AM 55.5800 -3.6900 114° Southeast 513 590 38,000  Level FlightAware ADS-B
Fri 02:53:38 AM 55.5460 -3.5600 115° Southeast 511 588 38,000  Level FlightAware ADS-B
Fri 02:54:13 AM 55.5110 -3.4260 115° Southeast 508 585 38,000  Level FlightAware ADS-B
Fri 02:54:15 AM 55.5073 -3.4129 115° Southeast 486 559 38,000  Level FlightAware UK
Fri 02:54:45 AM 55.4777 -3.3018 115° Southeast 484 557 38,000  Level FlightAware UK
Fri 02:54:48 AM 55.4770 -3.2980 115° Southeast 504 580 38,000  Level FlightAware ADS-B
Fri 02:55:23 AM 55.4410 -3.1640 115° Southeast 502 578 38,000  Level FlightAware ADS-B
Fri 02:56:00 AM 55.4060 -3.0310 115° Southeast 501 577 38,000  Level FlightAware ADS-B
Fri 02:56:35 AM 55.3710 -2.9020 115° Southeast 504 580 38,000  Level FlightAware ADS-B
Fri 02:57:12 AM 55.3340 -2.7660 116° Southeast 508 585 38,000  Level FlightAware ADS-B
Fri 02:57:42 AM 55.3040 -2.6530 115° Southeast 509 586 38,000  Level FlightAware ADS-B
Fri 02:58:20 AM 55.2660 -2.5150 116° Southeast 511 588 38,000  Level FlightAware ADS-B
Fri 02:58:55 AM 55.2310 -2.3880 116° Southeast 507 583 38,000  Level FlightAware ADS-B
Fri 02:59:31 AM 55.1950 -2.2560 115° Southeast 506 582 38,000  Level FlightAware ADS-B
Fri 03:00:03 AM 55.1610 -2.1340 116° Southeast 507 583 38,000  Level FlightAware ADS-B
Fri 03:00:39 AM 55.1240 -2.0030 116° Southeast 507 583 38,000  Level FlightAware ADS-B
Fri 03:01:13 AM 55.0880 -1.8740 116° Southeast 507 583 38,000  Level FlightAware ADS-B
Fri 03:01:49 AM 55.0520 -1.7470 116° Southeast 507 583 38,000  Level FlightAware ADS-B
Fri 03:01:52 AM 55.0458 -1.7256 116° Southeast 480 552 38,000  Level FlightAware UK
Fri 03:02:23 AM 55.0160 -1.6180 116° Southeast 509 586 38,000  Level FlightAware ADS-B
Fri 03:02:59 AM 54.9817 -1.4792 116° Southeast 480 552 38,000  Level FlightAware UK
Fri 03:03:01 AM 54.9830 -1.4810 116° Southeast 509 586 38,000  Level FlightAware ADS-B
Fri 03:03:34 AM 54.9520 -1.3580 116° Southeast 509 586 38,000  Level FlightAware ADS-B
Fri 03:03:35 AM 54.9483 -1.3444 116° Southeast 478 550 38,000  Level FlightAware UK
Fri 03:04:05 AM 54.9194 -1.2327 116° Southeast 478 550 38,000  Level FlightAware UK
Fri 03:04:08 AM 54.9180 -1.2280 116° Southeast 510 587 38,000  Level FlightAware ADS-B
Fri 03:04:45 AM 54.8830 -1.0910 114° Southeast 512 589 38,000  Level FlightAware ADS-B
Fri 03:05:20 AM 54.8490 -0.9630 115° Southeast 511 588 38,000  Level FlightAware ADS-B
Fri 03:05:52 AM 54.8170 -0.8400 114° Southeast 511 588 38,000  Level FlightAware ADS-B
Fri 03:06:29 AM 54.7793 -0.6955 114° Southeast 480 552 38,000  Level FlightAware UK
Fri 03:06:30 AM 54.7800 -0.6970 114° Southeast 511 588 38,000  Level FlightAware ADS-B
Fri 03:07:07 AM 54.7440 -0.5600 114° Southeast 509 586 38,000  Level FlightAware ADS-B
Fri 03:07:39 AM 54.7120 -0.4410 115° Southeast 507 583 38,000  Level FlightAware ADS-B
Fri 03:08:15 AM 54.6780 -0.3140 115° Southeast 510 587 38,000  Level FlightAware ADS-B
Fri 03:08:52 AM 54.6380 -0.1670 115° Southeast 510 587 38,000  Level FlightAware ADS-B
Fri 03:09:27 AM 54.6040 -0.0420 115° Southeast 510 587 38,000 88 Level FlightAware ADS-B
Fri 03:10:00 AM 54.5710 0.0810 115° Southeast 509 586 38,100 343 Climbing FlightAware ADS-B
Fri 03:10:37 AM 54.5350 0.2130 115° Southeast 508 585 38,400 554 Climbing FlightAware ADS-B
Fri 03:11:05 AM 54.5060 0.3180 115° Southeast 509 586 38,700 643 Climbing FlightAware ADS-B
Fri 03:11:33 AM 54.4780 0.4180 116° Southeast 509 586 39,000 234 Climbing FlightAware ADS-B
Fri 03:12:22 AM 54.4280 0.5980 115° Southeast 506 582 39,000  Level FlightAware ADS-B
Fri 03:12:54 AM 54.3952 0.7148 115° Southeast 480 552 39,000  Level FlightAware UK
Fri 03:12:57 AM 54.3940 0.7210 115° Southeast 508 585 39,000  Level FlightAware ADS-B
Fri 03:13:34 AM 54.3550 0.8600 116° Southeast 509 586 39,000  Level FlightAware ADS-B
Fri 03:14:09 AM 54.3220 0.9750 116° Southeast 511 588 39,000  Level FlightAware ADS-B
Fri 03:14:44 AM 54.2840 1.1070 116° Southeast 513 590 39,000  Level FlightAware ADS-B
Fri 03:15:23 AM 54.2450 1.2450 116° Southeast 514 592 39,000  Level FlightAware ADS-B
Fri 03:15:57 AM 54.2080 1.3720 116° Southeast 515 593 39,000  Level FlightAware ADS-B
Fri 03:16:33 AM 54.1710 1.5000 116° Southeast 514 592 39,000  Level FlightAware ADS-B
Fri 03:17:09 AM 54.1330 1.6320 116° Southeast 513 590 39,000  Level FlightAware ADS-B
Fri 03:17:42 AM 54.0970 1.7540 117° Southeast 512 589 39,000  Level FlightAware ADS-B
Fri 03:18:12 AM 54.0631 1.8694 117° Southeast 480 552 39,000  Level FlightAware UK
Fri 03:18:14 AM 54.0690 1.8490 117° Southeast 513 590 39,000  Level FlightAware ADS-B
Fri 03:18:53 AM 54.0210 2.0130 116° Southeast 513 590 39,000  Level FlightAware ADS-B
Fri 03:19:24 AM 53.9900 2.1210 116° Southeast 513 590 39,000  Level FlightAware ADS-B
Fri 03:20:01 AM 53.9600 2.2640 110° East 513 590 39,000  Level FlightAware ADS-B
Fri 03:20:35 AM 53.9360 2.3920 108° East 512 589 39,000  Level FlightAware ADS-B
Fri 03:21:16 AM 53.9050 2.5510 108° East 512 589 39,000  Level FlightAware ADS-B
Fri 03:21:50 AM 53.8800 2.6840 108° East 511 588 39,000  Level FlightAware ADS-B
Fri 03:22:25 AM 53.8550 2.8110 108° East 508 585 39,000  Level FlightAware ADS-B
Fri 03:22:59 AM 53.8300 2.9400 108° East 507 583 39,000  Level FlightAware ADS-B
Fri 03:23:31 AM 53.8050 3.0630 109° East 506 582 39,000  Level FlightAware ADS-B
Fri 03:24:07 AM 53.7750 3.1960 111° Southeast 506 582 39,000  Level FlightAware ADS-B
Fri 03:24:23 AM 53.7550 3.2480 123° Southeast 501 577 39,000  Level FlightAware ADS-B
Fri 03:24:54 AM 53.7120 3.3200 135° Southeast 492 566 39,000  Level FlightAware ADS-B
Fri 03:25:29 AM 53.6500 3.4220 136° Southeast 491 565 39,000  Level FlightAware ADS-B
Fri 03:26:16 AM 53.5730 3.5550 134° Southeast 493 567 39,000  Level FlightAware ADS-B
Fri 03:26:48 AM 53.5220 3.6410 135° Southeast 495 570 39,000  Level FlightAware ADS-B
Fri 03:27:23 AM 53.4660 3.7350 135° Southeast 499 574 39,000  Level FlightAware ADS-B
Fri 03:27:58 AM 53.4080 3.8300 136° Southeast 501 577 39,000  Level FlightAware ADS-B
Fri 03:28:32 AM 53.3510 3.9250 135° Southeast 502 578 39,000  Level FlightAware ADS-B
Fri 03:29:10 AM 53.2890 4.0280 135° Southeast 502 578 39,000  Level FlightAware ADS-B
Fri 03:29:44 AM 53.2330 4.1210 135° Southeast 502 578 39,000  Level FlightAware ADS-B
Fri 03:30:20 AM 53.1740 4.2170 136° Southeast 503 579 39,000  Level FlightAware ADS-B
Fri 03:30:57 AM 53.1140 4.3160 135° Southeast 504 580 39,000  Level FlightAware ADS-B
Fri 03:31:30 AM 53.0560 4.4090 136° Southeast 504 580 39,000  Level FlightAware ADS-B
Fri 03:32:07 AM 52.9960 4.5070 135° Southeast 505 581 39,000  Level FlightAware ADS-B
Fri 03:32:47 AM 52.9290 4.6150 136° Southeast 504 580 39,000  Level FlightAware ADS-B
Fri 03:33:22 AM 52.8690 4.7110 136° Southeast 503 579 39,000  Level FlightAware ADS-B
Fri 03:33:59 AM 52.8100 4.8060 136° Southeast 503 579 39,000  Level FlightAware ADS-B
Fri 03:34:31 AM 52.7560 4.8920 136° Southeast 504 580 39,000  Level FlightAware ADS-B
Fri 03:34:32 AM 52.7530 4.8969 136° Southeast 476 548 39,000  Level FlightAware UK
Fri 03:35:06 AM 52.6990 4.9830 136° Southeast 504 580 39,000 -254 Level FlightAware ADS-B
Fri 03:35:43 AM 52.6350 5.0840 136° Southeast 505 581 38,700 -740 Descending FlightAware ADS-B
Fri 03:36:19 AM 52.5750 5.1800 136° Southeast 512 589 38,100 -971 Descending FlightAware ADS-B
Fri 03:36:51 AM 52.5200 5.2650 137° Southeast 516 594 37,600 -882 Descending FlightAware ADS-B
Fri 03:37:27 AM 52.4590 5.3610 136° Southeast 512 589 37,100 -507 Descending FlightAware ADS-B
Fri 03:38:02 AM 52.3970 5.4588 136° Southeast 472 543 37,000 -167 Descending FlightAware UK
Fri 03:38:03 AM 52.3980 5.4560 136° Southeast 512 589 37,000  Level FlightAware ADS-B
Fri 03:38:32 AM 52.3510 5.5280 137° Southeast 511 588 37,000  Level FlightAware ADS-B
Fri 03:39:13 AM 52.2770 5.6430 136° Southeast 512 589 37,000  Level FlightAware ADS-B
Fri 03:39:46 AM 52.2230 5.7260 137° Southeast 512 589 37,000  Level FlightAware ADS-B
Fri 03:40:18 AM 52.1630 5.8180 137° Southeast 511 588 37,000  Level FlightAware ADS-B
Fri 03:40:56 AM 52.0980 5.9170 137° Southeast 511 588 37,000  Level FlightAware ADS-B
Fri 03:41:34 AM 52.0340 6.0140 137° Southeast 512 589 37,000  Level FlightAware ADS-B
Fri 03:42:06 AM 51.9780 6.0990 137° Southeast 511 588 37,000  Level FlightAware ADS-B
Fri 03:42:38 AM 51.9230 6.1830 137° Southeast 511 588 37,000 -529 Level FlightAware ADS-B
Fri 03:43:14 AM 51.8590 6.2780 137° Southeast 513 590 36,400 -1,216 Descending FlightAware ADS-B
Fri 03:43:52 AM 51.7960 6.3740 137° Southeast 514 592 35,500 -1,455 Descending FlightAware ADS-B
Fri 03:44:20 AM 51.7470 6.4460 138° Southeast 517 595 34,800 -1,588 Descending FlightAware ADS-B
Fri 03:45:00 AM 51.6760 6.5520 137° Southeast 520 598 33,700 -1,807 Descending FlightAware ADS-B
Fri 03:45:43 AM 51.6020 6.6610 138° Southeast 509 586 32,300 -2,000 Descending FlightAware ADS-B
Fri 03:46:21 AM 51.5370 6.7580 137° Southeast 496 571 31,000 -2,057 Descending FlightAware ADS-B
Fri 03:46:53 AM 51.4820 6.8380 138° Southeast 491 565 29,900 -2,029 Descending FlightAware ADS-B
Fri 03:47:29 AM 51.4260 6.9210 137° Southeast 474 545 28,700 -2,055 Descending FlightAware ADS-B
Fri 03:48:06 AM 51.3660 7.0080 138° Southeast 464 534 27,400 -1,881 Descending FlightAware ADS-B
Fri 03:48:36 AM 51.3140 7.0800 139° Southeast 455 524 26,600 -1,254 Descending FlightAware ADS-B
Fri 03:49:13 AM 51.2480 7.1420 150° Southeast 451 519 26,000 -486 Descending FlightAware ADS-B
Fri 03:49:50 AM 51.1840 7.2010 150° Southeast 455 524 26,000  Level FlightAware ADS-B
Fri 03:50:22 AM 51.1270 7.2550 149° Southeast 453 521 26,000 -462 Level FlightAware ADS-B
Fri 03:50:55 AM 51.0650 7.3120 150° Southeast 452 520 25,500 -1,000 Descending FlightAware ADS-B
Fri 03:51:34 AM 50.9950 7.3760 150° Southeast 459 528 24,800 -1,216 Descending FlightAware ADS-B
Fri 03:52:09 AM 50.9320 7.4340 150° Southeast 452 520 24,000 -1,690 Descending FlightAware ADS-B
Fri 03:52:45 AM 50.8670 7.4940 150° Southeast 440 506 22,800 -2,087 Descending FlightAware ADS-B
Fri 03:53:18 AM 50.8090 7.5460 150° Southeast 432 497 21,600 -1,971 Descending FlightAware ADS-B
Fri 03:53:55 AM 50.7440 7.6050 150° Southeast 418 481 20,500 -1,775 Descending FlightAware ADS-B
Fri 03:54:29 AM 50.6870 7.6580 149° Southeast 406 467 19,500 -1,913 Descending FlightAware ADS-B
Fri 03:55:04 AM 50.6320 7.7070 151° Southeast 400 460 18,300 -2,229 Descending FlightAware ADS-B
Fri 03:55:39 AM 50.5760 7.7580 150° Southeast 398 458 16,900 -2,000 Descending FlightAware ADS-B
Fri 03:56:16 AM 50.5190 7.8100 150° Southeast 386 444 15,900 -1,853 Descending FlightAware ADS-B
Fri 03:56:47 AM 50.4700 7.8530 151° Southeast 383 441 14,800 -1,765 Descending FlightAware ADS-B
Fri 03:57:24 AM 50.4150 7.9020 150° Southeast 370 426 13,900 -1,200 Descending FlightAware ADS-B
Fri 03:57:57 AM 50.3650 7.9470 150° Southeast 348 400 13,400 -930 Descending FlightAware ADS-B
Fri 03:58:35 AM 50.3180 8.0040 142° Southeast 331 381 12,800 -973 Descending FlightAware ADS-B
Fri 03:59:11 AM 50.2790 8.0630 136° Southeast 317 365 12,200 -727 Descending FlightAware ADS-B
Fri 03:59:41 AM 50.2490 8.1080 136° Southeast 295 339 12,000 -441 Descending FlightAware ADS-B
Fri 04:00:19 AM 50.2140 8.1620 135° Southeast 273 314 11,700 -750 Descending FlightAware ADS-B
Fri 04:00:53 AM 50.1830 8.2080 136° Southeast 268 308 11,100 -1,114 Descending FlightAware ADS-B
Fri 04:01:29 AM 50.1510 8.2560 136° Southeast 263 303 10,400 -917 Descending FlightAware ADS-B
Fri 04:02:05 AM 50.1210 8.3020 135° Southeast 259 298 10,000 -480 Descending FlightAware ADS-B
Fri 04:02:19 AM 50.1070 8.3140 151° Southeast 257 296 10,000 -333 Level FlightAware ADS-B
Fri 04:02:23 AM 50.1010 8.3160 168° South 257 296 9,900 -1,333 Descending FlightAware ADS-B
Fri 04:02:28 AM 50.0960 8.3170 173° South 256 295 9,800 -1,200 Descending FlightAware ADS-B
Fri 04:02:53 AM 50.0690 8.2960 207° Southwest 249 287 9,300 -1,273 Descending FlightAware ADS-B
Fri 04:03:01 AM 50.0650 8.2840 243° Southwest 249 287 9,100 -1,071 Descending FlightAware ADS-B
Fri 04:03:21 AM 50.0570 8.2510 249° West 247 284 8,800 -1,050 Descending FlightAware ADS-B
Fri 04:03:41 AM 50.0500 8.2180 252° West 244 281 8,400 -1,167 Descending FlightAware ADS-B
Fri 04:03:57 AM 50.0440 8.1900 252° West 243 280 8,100 -1,235 Descending FlightAware ADS-B
Fri 04:04:15 AM 50.0370 8.1600 250° West 241 277 7,700 -1,200 Descending FlightAware ADS-B
Fri 04:04:37 AM 50.0300 8.1240 253° West 241 277 7,300 -1,143 Descending FlightAware ADS-B
Fri 04:04:57 AM 50.0230 8.0920 251° West 240 276 6,900 -1,105 Descending FlightAware ADS-B
Fri 04:05:15 AM 50.0170 8.0650 251° West 241 277 6,600 -1,105 Descending FlightAware ADS-B
Fri 04:05:35 AM 50.0090 8.0290 251° West 237 273 6,200 -1,200 Descending FlightAware ADS-B
Fri 04:05:55 AM 50.0020 7.9980 251° West 236 272 5,800 -1,154 Descending FlightAware ADS-B
Fri 04:06:01 AM 49.9980 7.9900 232° Southwest 237 273 5,700 -1,125 Descending FlightAware ADS-B
Fri 04:06:11 AM 49.9890 7.9800 216° Southwest 237 273 5,500 -1,286 Descending FlightAware ADS-B
Fri 04:06:15 AM 49.9860 7.9780 203° Southwest 236 272 5,400 -1,000 Descending FlightAware ADS-B
Fri 04:06:23 AM 49.9770 7.9760 188° South 236 272 5,300 -1,029 Descending FlightAware ADS-B
Fri 04:06:50 AM 49.9520 7.9950 154° Southeast 237 273 4,800 -1,000 Descending FlightAware ADS-B
Fri 04:06:59 AM 49.9480 8.0100 113° Southeast 239 275 4,700 -960 Descending FlightAware ADS-B
Fri 04:07:15 AM 49.9440 8.0360 103° East 240 276 4,400 -947 Descending FlightAware ADS-B
Fri 04:07:37 AM 49.9390 8.0740 102° East 239 275 4,100 -545 Descending FlightAware ADS-B
Fri 04:07:59 AM 49.9350 8.1110 100° East 238 274 4,000 -400 Descending FlightAware ADS-B
Fri 04:08:07 AM 49.9340 8.1260 96° East 238 274 3,900 -387 Descending FlightAware ADS-B
Fri 04:08:30 AM 49.9390 8.1620 78° East 238 274 3,800 -140 Descending FlightAware ADS-B
Fri 04:08:50 AM 49.9450 8.1920 73° East 236 272 3,800 -150 Level FlightAware ADS-B
Fri 04:09:10 AM 49.9530 8.2250 69° East 224 258 3,700 -462 Descending FlightAware ADS-B
Fri 04:09:29 AM 49.9600 8.2520 68° East 215 247 3,500 -833 Descending FlightAware ADS-B
Fri 04:09:46 AM 49.9660 8.2780 70° East 209 241 3,200 -686 Descending FlightAware ADS-B
Fri 04:10:04 AM 49.9710 8.3010 71° East 197 227 3,100 -439 Descending FlightAware ADS-B
Fri 04:10:27 AM 49.9780 8.3290 69° East 184 212 2,900 -769 Descending FlightAware ADS-B
Fri 04:10:43 AM 49.9840 8.3510 67° East 180 207 2,600 -947 Descending FlightAware ADS-B
Fri 04:11:05 AM 49.9890 8.3740 71° East 180 207 2,300 -923 Descending FlightAware ADS-B
Fri 04:11:22 AM 49.9940 8.3940 69° East 174 200 2,000 -1,000 Descending FlightAware ADS-B
Fri 04:11:29 AM 49.9960 8.4030 71° East 170 196 1,900 -321 Descending FlightAware ADS-B
Fri 04:12:18 AM 50.0060 8.4460 70° East 152 175 1,700 -806 Descending FlightAware ADS-B
Fri 04:12:36 AM 50.0130 8.4740 69° East 145 167 1,000 -1,500 Descending FlightAware ADS-B
Fri 04:12:58 AM 50.0180 8.4940 69° East 141 162 700 -750 Descending FlightAware ADS-B
Fri 04:13:16 AM 50.0220 8.5120 71° East 139 160 500 -714 Descending FlightAware ADS-B
Fri 04:13:40 AM 50.0280 8.5350 68° East 138 159 200 -649 Descending FlightAware ADS-B
Fri 04:13:53 AM 50.0300 8.5450 73° East 134 154 100 -462 Descending FlightAware ADS-B
Fri 04:22:52 AM 50.0420 8.5620 270° West -11 Descending FlightAware ADS-B

Login

Don't have an account? Register now (free) for customized features, flight alerts, and more!